sensor_id;sensor_type;location;lat;lon;timestamp;P1;durP1;ratioP1;P2;durP2;ratioP2
20611;SDS011;10465;42.686;23.364;2022-07-23T00:02:05;16.90;;;11.68;;
20611;SDS011;10465;42.686;23.364;2022-07-23T00:04:31;20.35;;;12.38;;
20611;SDS011;10465;42.686;23.364;2022-07-23T00:06:57;18.17;;;12.98;;
20611;SDS011;10465;42.686;23.364;2022-07-23T00:09:23;18.27;;;13.20;;
20611;SDS011;10465;42.686;23.364;2022-07-23T00:11:48;18.23;;;12.75;;
20611;SDS011;10465;42.686;23.364;2022-07-23T00:14:14;20.08;;;13.52;;
20611;SDS011;10465;42.686;23.364;2022-07-23T00:16:39;19.95;;;13.23;;
20611;SDS011;10465;42.686;23.364;2022-07-23T00:19:05;18.55;;;12.45;;
20611;SDS011;10465;42.686;23.364;2022-07-23T00:21:30;16.55;;;11.20;;
20611;SDS011;10465;42.686;23.364;2022-07-23T00:23:56;16.58;;;11.32;;
20611;SDS011;10465;42.686;23.364;2022-07-23T00:26:21;17.20;;;11.77;;
20611;SDS011;10465;42.686;23.364;2022-07-23T00:28:47;15.45;;;10.63;;
20611;SDS011;10465;42.686;23.364;2022-07-23T00:31:12;12.27;;;9.07;;
20611;SDS011;10465;42.686;23.364;2022-07-23T00:33:37;11.30;;;7.40;;
20611;SDS011;10465;42.686;23.364;2022-07-23T00:36:03;8.73;;;7.13;;
20611;SDS011;10465;42.686;23.364;2022-07-23T00:38:29;8.13;;;6.45;;
20611;SDS011;10465;42.686;23.364;2022-07-23T00:40:54;10.10;;;6.80;;
20611;SDS011;10465;42.686;23.364;2022-07-23T00:43:20;7.45;;;6.20;;
20611;SDS011;10465;42.686;23.364;2022-07-23T00:45:47;14.52;;;6.40;;
20611;SDS011;10465;42.686;23.364;2022-07-23T00:48:12;10.75;;;6.55;;
20611;SDS011;10465;42.686;23.364;2022-07-23T00:50:38;8.40;;;6.53;;
20611;SDS011;10465;42.686;23.364;2022-07-23T00:53:03;11.32;;;6.55;;
20611;SDS011;10465;42.686;23.364;2022-07-23T00:55:30;9.82;;;6.85;;
20611;SDS011;10465;42.686;23.364;2022-07-23T00:57:56;9.48;;;6.70;;
20611;SDS011;10465;42.686;23.364;2022-07-23T01:00:22;10.45;;;6.60;;
20611;SDS011;10465;42.686;23.364;2022-07-23T01:02:48;8.25;;;6.43;;
20611;SDS011;10465;42.686;23.364;2022-07-23T01:05:14;8.93;;;7.32;;
20611;SDS011;10465;42.686;23.364;2022-07-23T01:07:40;8.07;;;7.18;;
20611;SDS011;10465;42.686;23.364;2022-07-23T01:10:05;9.15;;;6.78;;
20611;SDS011;10465;42.686;23.364;2022-07-23T01:12:51;11.63;;;6.80;;
20611;SDS011;10465;42.686;23.364;2022-07-23T01:15:17;12.48;;;6.85;;
20611;SDS011;10465;42.686;23.364;2022-07-23T01:17:42;7.13;;;6.43;;
20611;SDS011;10465;42.686;23.364;2022-07-23T01:20:08;10.30;;;7.43;;
20611;SDS011;10465;42.686;23.364;2022-07-23T01:22:33;10.10;;;6.70;;
20611;SDS011;10465;42.686;23.364;2022-07-23T01:24:59;7.95;;;7.15;;
20611;SDS011;10465;42.686;23.364;2022-07-23T01:27:24;9.90;;;6.70;;
20611;SDS011;10465;42.686;23.364;2022-07-23T01:29:49;8.45;;;6.93;;
20611;SDS011;10465;42.686;23.364;2022-07-23T01:32:15;7.40;;;6.60;;
20611;SDS011;10465;42.686;23.364;2022-07-23T01:34:40;11.15;;;7.15;;
20611;SDS011;10465;42.686;23.364;2022-07-23T01:37:06;9.07;;;6.93;;
20611;SDS011;10465;42.686;23.364;2022-07-23T01:39:32;13.38;;;6.78;;
20611;SDS011;10465;42.686;23.364;2022-07-23T01:41:57;9.07;;;6.88;;
20611;SDS011;10465;42.686;23.364;2022-07-23T01:44:23;7.60;;;6.32;;
20611;SDS011;10465;42.686;23.364;2022-07-23T01:46:48;8.65;;;6.47;;
20611;SDS011;10465;42.686;23.364;2022-07-23T01:49:14;9.43;;;6.25;;
20611;SDS011;10465;42.686;23.364;2022-07-23T01:51:40;7.97;;;6.30;;
20611;SDS011;10465;42.686;23.364;2022-07-23T01:54:24;8.05;;;7.05;;
20611;SDS011;10465;42.686;23.364;2022-07-23T01:56:53;8.45;;;6.90;;
20611;SDS011;10465;42.686;23.364;2022-07-23T01:59:18;8.52;;;7.20;;
20611;SDS011;10465;42.686;23.364;2022-07-23T02:01:44;11.63;;;6.80;;
20611;SDS011;10465;42.686;23.364;2022-07-23T02:04:09;10.73;;;6.78;;
20611;SDS011;10465;42.686;23.364;2022-07-23T02:06:35;8.98;;;6.15;;
20611;SDS011;10465;42.686;23.364;2022-07-23T02:09:00;8.07;;;6.65;;
20611;SDS011;10465;42.686;23.364;2022-07-23T02:11:26;8.98;;;7.18;;
20611;SDS011;10465;42.686;23.364;2022-07-23T02:13:51;8.55;;;6.68;;
20611;SDS011;10465;42.686;23.364;2022-07-23T02:16:17;10.13;;;7.50;;
20611;SDS011;10465;42.686;23.364;2022-07-23T02:18:42;13.10;;;7.43;;
20611;SDS011;10465;42.686;23.364;2022-07-23T02:21:08;8.45;;;6.65;;
20611;SDS011;10465;42.686;23.364;2022-07-23T02:23:33;10.15;;;7.40;;
20611;SDS011;10465;42.686;23.364;2022-07-23T02:25:59;8.30;;;7.10;;
20611;SDS011;10465;42.686;23.364;2022-07-23T02:28:24;10.40;;;7.18;;
20611;SDS011;10465;42.686;23.364;2022-07-23T02:30:50;9.70;;;6.88;;
20611;SDS011;10465;42.686;23.364;2022-07-23T02:33:15;9.90;;;7.20;;
20611;SDS011;10465;42.686;23.364;2022-07-23T02:35:41;12.38;;;7.65;;
20611;SDS011;10465;42.686;23.364;2022-07-23T02:38:06;8.88;;;7.57;;
20611;SDS011;10465;42.686;23.364;2022-07-23T02:40:32;8.52;;;7.28;;
20611;SDS011;10465;42.686;23.364;2022-07-23T02:42:57;9.60;;;7.22;;
20611;SDS011;10465;42.686;23.364;2022-07-23T02:45:23;11.55;;;7.55;;
20611;SDS011;10465;42.686;23.364;2022-07-23T02:47:48;11.07;;;7.82;;
20611;SDS011;10465;42.686;23.364;2022-07-23T02:50:14;8.60;;;7.40;;
20611;SDS011;10465;42.686;23.364;2022-07-23T02:52:39;10.82;;;6.90;;
20611;SDS011;10465;42.686;23.364;2022-07-23T02:55:05;11.23;;;8.15;;
20611;SDS011;10465;42.686;23.364;2022-07-23T02:57:31;16.05;;;8.43;;
20611;SDS011;10465;42.686;23.364;2022-07-23T02:59:56;13.45;;;8.43;;
20611;SDS011;10465;42.686;23.364;2022-07-23T03:02:22;12.35;;;8.63;;
20611;SDS011;10465;42.686;23.364;2022-07-23T03:04:48;12.23;;;8.35;;
20611;SDS011;10465;42.686;23.364;2022-07-23T03:07:15;14.32;;;9.45;;
20611;SDS011;10465;42.686;23.364;2022-07-23T03:09:41;12.55;;;8.23;;
20611;SDS011;10465;42.686;23.364;2022-07-23T03:12:06;13.65;;;9.55;;
20611;SDS011;10465;42.686;23.364;2022-07-23T03:14:32;15.60;;;9.98;;
20611;SDS011;10465;42.686;23.364;2022-07-23T03:16:58;12.27;;;9.50;;
20611;SDS011;10465;42.686;23.364;2022-07-23T03:19:24;16.20;;;9.52;;
20611;SDS011;10465;42.686;23.364;2022-07-23T03:21:50;14.65;;;9.70;;
20611;SDS011;10465;42.686;23.364;2022-07-23T03:24:15;10.98;;;9.32;;
20611;SDS011;10465;42.686;23.364;2022-07-23T03:26:43;16.73;;;10.48;;
20611;SDS011;10465;42.686;23.364;2022-07-23T03:29:08;14.95;;;9.57;;
20611;SDS011;10465;42.686;23.364;2022-07-23T03:31:34;16.25;;;10.00;;
20611;SDS011;10465;42.686;23.364;2022-07-23T03:34:00;13.38;;;10.23;;
20611;SDS011;10465;42.686;23.364;2022-07-23T03:36:26;14.10;;;9.75;;
20611;SDS011;10465;42.686;23.364;2022-07-23T03:38:52;13.75;;;9.27;;
20611;SDS011;10465;42.686;23.364;2022-07-23T03:41:18;17.40;;;10.43;;
20611;SDS011;10465;42.686;23.364;2022-07-23T03:43:44;13.88;;;9.57;;
20611;SDS011;10465;42.686;23.364;2022-07-23T03:46:09;13.05;;;9.32;;
20611;SDS011;10465;42.686;23.364;2022-07-23T03:48:35;12.27;;;9.90;;
20611;SDS011;10465;42.686;23.364;2022-07-23T03:51:01;13.73;;;10.35;;
20611;SDS011;10465;42.686;23.364;2022-07-23T03:53:26;16.17;;;9.52;;
20611;SDS011;10465;42.686;23.364;2022-07-23T03:55:52;13.85;;;9.88;;
20611;SDS011;10465;42.686;23.364;2022-07-23T03:58:17;13.93;;;9.95;;
20611;SDS011;10465;42.686;23.364;2022-07-23T04:00:43;14.73;;;9.90;;
20611;SDS011;10465;42.686;23.364;2022-07-23T04:03:08;13.50;;;9.57;;
20611;SDS011;10465;42.686;23.364;2022-07-23T04:05:33;11.57;;;9.77;;
20611;SDS011;10465;42.686;23.364;2022-07-23T04:07:59;11.88;;;9.65;;
20611;SDS011;10465;42.686;23.364;2022-07-23T04:10:24;13.70;;;8.60;;
20611;SDS011;10465;42.686;23.364;2022-07-23T04:12:50;11.40;;;8.45;;
20611;SDS011;10465;42.686;23.364;2022-07-23T04:15:15;11.50;;;8.27;;
20611;SDS011;10465;42.686;23.364;2022-07-23T04:17:41;12.25;;;8.88;;
20611;SDS011;10465;42.686;23.364;2022-07-23T04:20:07;11.25;;;8.70;;
20611;SDS011;10465;42.686;23.364;2022-07-23T04:22:32;14.57;;;9.20;;
20611;SDS011;10465;42.686;23.364;2022-07-23T04:24:58;14.13;;;8.98;;
20611;SDS011;10465;42.686;23.364;2022-07-23T04:27:24;15.23;;;10.38;;
20611;SDS011;10465;42.686;23.364;2022-07-23T04:29:49;15.48;;;10.70;;
20611;SDS011;10465;42.686;23.364;2022-07-23T04:32:15;14.88;;;10.00;;
20611;SDS011;10465;42.686;23.364;2022-07-23T04:34:40;13.05;;;8.93;;
20611;SDS011;10465;42.686;23.364;2022-07-23T04:37:06;18.80;;;9.68;;
20611;SDS011;10465;42.686;23.364;2022-07-23T04:39:31;11.25;;;8.80;;
20611;SDS011;10465;42.686;23.364;2022-07-23T04:41:57;13.07;;;8.90;;
20611;SDS011;10465;42.686;23.364;2022-07-23T04:44:22;14.38;;;9.45;;
20611;SDS011;10465;42.686;23.364;2022-07-23T04:46:47;11.77;;;9.18;;
20611;SDS011;10465;42.686;23.364;2022-07-23T04:49:13;11.80;;;9.00;;
20611;SDS011;10465;42.686;23.364;2022-07-23T04:51:38;12.55;;;8.30;;
20611;SDS011;10465;42.686;23.364;2022-07-23T04:54:04;17.88;;;9.50;;
20611;SDS011;10465;42.686;23.364;2022-07-23T04:56:30;14.23;;;8.98;;
20611;SDS011;10465;42.686;23.364;2022-07-23T04:58:56;13.18;;;8.77;;
20611;SDS011;10465;42.686;23.364;2022-07-23T05:01:21;9.80;;;8.02;;
20611;SDS011;10465;42.686;23.364;2022-07-23T05:03:47;12.48;;;8.43;;
20611;SDS011;10465;42.686;23.364;2022-07-23T05:06:13;11.60;;;8.55;;
20611;SDS011;10465;42.686;23.364;2022-07-23T05:08:39;15.45;;;9.13;;
20611;SDS011;10465;42.686;23.364;2022-07-23T05:11:04;11.20;;;8.90;;
20611;SDS011;10465;42.686;23.364;2022-07-23T05:13:30;11.93;;;9.10;;
20611;SDS011;10465;42.686;23.364;2022-07-23T05:15:55;12.60;;;9.02;;
20611;SDS011;10465;42.686;23.364;2022-07-23T05:18:21;13.02;;;8.88;;
20611;SDS011;10465;42.686;23.364;2022-07-23T05:20:46;10.07;;;8.60;;
20611;SDS011;10465;42.686;23.364;2022-07-23T05:23:12;15.05;;;9.10;;
20611;SDS011;10465;42.686;23.364;2022-07-23T05:25:37;12.05;;;8.48;;
20611;SDS011;10465;42.686;23.364;2022-07-23T05:28:03;13.07;;;8.70;;
20611;SDS011;10465;42.686;23.364;2022-07-23T05:30:28;11.35;;;9.00;;
20611;SDS011;10465;42.686;23.364;2022-07-23T05:32:54;13.25;;;9.27;;
20611;SDS011;10465;42.686;23.364;2022-07-23T05:35:19;13.10;;;9.50;;
20611;SDS011;10465;42.686;23.364;2022-07-23T05:37:45;11.60;;;9.25;;
20611;SDS011;10465;42.686;23.364;2022-07-23T05:40:10;11.27;;;8.70;;
20611;SDS011;10465;42.686;23.364;2022-07-23T05:42:37;14.25;;;9.02;;
20611;SDS011;10465;42.686;23.364;2022-07-23T05:45:04;10.55;;;9.25;;
20611;SDS011;10465;42.686;23.364;2022-07-23T05:47:43;13.05;;;9.07;;
20611;SDS011;10465;42.686;23.364;2022-07-23T05:50:10;12.68;;;9.07;;
20611;SDS011;10465;42.686;23.364;2022-07-23T05:52:37;17.48;;;8.82;;
20611;SDS011;10465;42.686;23.364;2022-07-23T05:55:03;15.02;;;8.73;;
20611;SDS011;10465;42.686;23.364;2022-07-23T05:57:29;12.75;;;8.70;;
20611;SDS011;10465;42.686;23.364;2022-07-23T05:59:55;12.95;;;8.20;;
20611;SDS011;10465;42.686;23.364;2022-07-23T06:02:21;14.20;;;8.52;;
20611;SDS011;10465;42.686;23.364;2022-07-23T06:04:46;10.25;;;8.63;;
20611;SDS011;10465;42.686;23.364;2022-07-23T06:07:11;11.75;;;8.50;;
20611;SDS011;10465;42.686;23.364;2022-07-23T06:09:37;12.52;;;8.93;;
20611;SDS011;10465;42.686;23.364;2022-07-23T06:12:02;13.38;;;8.55;;
20611;SDS011;10465;42.686;23.364;2022-07-23T06:14:28;15.98;;;8.77;;
20611;SDS011;10465;42.686;23.364;2022-07-23T06:16:53;11.80;;;8.02;;
20611;SDS011;10465;42.686;23.364;2022-07-23T06:19:19;11.60;;;8.02;;
20611;SDS011;10465;42.686;23.364;2022-07-23T06:21:44;13.93;;;8.68;;
20611;SDS011;10465;42.686;23.364;2022-07-23T06:24:10;12.52;;;9.23;;
20611;SDS011;10465;42.686;23.364;2022-07-23T06:26:35;11.63;;;8.57;;
20611;SDS011;10465;42.686;23.364;2022-07-23T06:29:01;11.95;;;8.25;;
20611;SDS011;10465;42.686;23.364;2022-07-23T06:31:26;12.82;;;9.63;;
20611;SDS011;10465;42.686;23.364;2022-07-23T06:33:52;17.30;;;8.93;;
20611;SDS011;10465;42.686;23.364;2022-07-23T06:36:17;11.20;;;8.57;;
20611;SDS011;10465;42.686;23.364;2022-07-23T06:38:43;14.32;;;9.00;;
20611;SDS011;10465;42.686;23.364;2022-07-23T06:41:08;13.93;;;9.05;;
20611;SDS011;10465;42.686;23.364;2022-07-23T06:43:34;12.55;;;8.70;;
20611;SDS011;10465;42.686;23.364;2022-07-23T06:45:59;12.45;;;9.27;;
20611;SDS011;10465;42.686;23.364;2022-07-23T06:48:25;16.70;;;8.80;;
20611;SDS011;10465;42.686;23.364;2022-07-23T06:50:50;11.20;;;8.18;;
20611;SDS011;10465;42.686;23.364;2022-07-23T06:53:17;13.95;;;8.50;;
20611;SDS011;10465;42.686;23.364;2022-07-23T06:55:43;13.10;;;8.57;;
20611;SDS011;10465;42.686;23.364;2022-07-23T06:58:08;14.18;;;8.60;;
20611;SDS011;10465;42.686;23.364;2022-07-23T07:00:35;14.38;;;8.60;;
20611;SDS011;10465;42.686;23.364;2022-07-23T07:03:01;10.68;;;8.50;;
20611;SDS011;10465;42.686;23.364;2022-07-23T07:05:26;13.55;;;9.25;;
20611;SDS011;10465;42.686;23.364;2022-07-23T07:07:53;14.13;;;9.85;;
20611;SDS011;10465;42.686;23.364;2022-07-23T07:10:20;12.70;;;10.48;;
20611;SDS011;10465;42.686;23.364;2022-07-23T07:12:46;16.80;;;10.65;;
20611;SDS011;10465;42.686;23.364;2022-07-23T07:15:11;13.90;;;9.60;;
20611;SDS011;10465;42.686;23.364;2022-07-23T07:17:37;18.58;;;10.07;;
20611;SDS011;10465;42.686;23.364;2022-07-23T07:20:02;13.10;;;8.82;;
20611;SDS011;10465;42.686;23.364;2022-07-23T07:22:28;12.75;;;9.05;;
20611;SDS011;10465;42.686;23.364;2022-07-23T07:24:54;12.63;;;9.00;;
20611;SDS011;10465;42.686;23.364;2022-07-23T07:27:19;10.90;;;8.88;;
20611;SDS011;10465;42.686;23.364;2022-07-23T07:29:45;15.15;;;8.30;;
20611;SDS011;10465;42.686;23.364;2022-07-23T07:32:10;10.93;;;8.95;;
20611;SDS011;10465;42.686;23.364;2022-07-23T07:34:36;13.60;;;8.82;;
20611;SDS011;10465;42.686;23.364;2022-07-23T07:37:01;14.85;;;7.75;;
20611;SDS011;10465;42.686;23.364;2022-07-23T07:39:27;15.07;;;8.32;;
20611;SDS011;10465;42.686;23.364;2022-07-23T07:41:52;14.30;;;8.45;;
20611;SDS011;10465;42.686;23.364;2022-07-23T07:44:18;10.60;;;8.07;;
20611;SDS011;10465;42.686;23.364;2022-07-23T07:46:44;9.68;;;7.93;;
20611;SDS011;10465;42.686;23.364;2022-07-23T07:49:09;14.52;;;8.07;;
20611;SDS011;10465;42.686;23.364;2022-07-23T07:51:35;12.75;;;8.30;;
20611;SDS011;10465;42.686;23.364;2022-07-23T07:54:00;17.85;;;9.60;;
20611;SDS011;10465;42.686;23.364;2022-07-23T07:56:26;12.13;;;8.13;;
20611;SDS011;10465;42.686;23.364;2022-07-23T07:58:51;12.30;;;9.48;;
20611;SDS011;10465;42.686;23.364;2022-07-23T08:01:17;15.27;;;8.98;;
20611;SDS011;10465;42.686;23.364;2022-07-23T08:03:44;11.10;;;8.75;;
20611;SDS011;10465;42.686;23.364;2022-07-23T08:06:10;12.40;;;9.02;;
20611;SDS011;10465;42.686;23.364;2022-07-23T08:08:35;11.93;;;8.52;;
20611;SDS011;10465;42.686;23.364;2022-07-23T08:11:01;12.65;;;9.20;;
20611;SDS011;10465;42.686;23.364;2022-07-23T08:13:26;13.23;;;9.75;;
20611;SDS011;10465;42.686;23.364;2022-07-23T08:15:52;19.80;;;10.60;;
20611;SDS011;10465;42.686;23.364;2022-07-23T08:18:18;17.50;;;11.00;;
20611;SDS011;10465;42.686;23.364;2022-07-23T08:20:44;18.33;;;13.40;;
20611;SDS011;10465;42.686;23.364;2022-07-23T08:23:09;15.57;;;9.75;;
20611;SDS011;10465;42.686;23.364;2022-07-23T08:25:36;13.45;;;8.15;;
20611;SDS011;10465;42.686;23.364;2022-07-23T08:28:05;10.23;;;6.90;;
20611;SDS011;10465;42.686;23.364;2022-07-23T08:30:32;12.68;;;7.68;;
20611;SDS011;10465;42.686;23.364;2022-07-23T08:33:09;11.20;;;7.30;;
20611;SDS011;10465;42.686;23.364;2022-07-23T08:35:38;12.10;;;8.38;;
20611;SDS011;10465;42.686;23.364;2022-07-23T08:38:07;9.48;;;8.35;;
20611;SDS011;10465;42.686;23.364;2022-07-23T08:40:36;11.07;;;7.72;;
20611;SDS011;10465;42.686;23.364;2022-07-23T08:43:07;10.63;;;8.30;;
20611;SDS011;10465;42.686;23.364;2022-07-23T08:45:37;16.33;;;7.93;;
20611;SDS011;10465;42.686;23.364;2022-07-23T08:48:05;11.40;;;8.65;;
20611;SDS011;10465;42.686;23.364;2022-07-23T08:50:33;11.48;;;8.02;;
20611;SDS011;10465;42.686;23.364;2022-07-23T08:53:01;14.77;;;8.65;;
20611;SDS011;10465;42.686;23.364;2022-07-23T08:55:30;15.02;;;8.35;;
20611;SDS011;10465;42.686;23.364;2022-07-23T08:57:56;16.27;;;8.63;;
20611;SDS011;10465;42.686;23.364;2022-07-23T09:00:22;13.90;;;8.20;;
20611;SDS011;10465;42.686;23.364;2022-07-23T09:02:49;12.68;;;8.20;;
20611;SDS011;10465;42.686;23.364;2022-07-23T09:05:16;12.60;;;8.40;;
20611;SDS011;10465;42.686;23.364;2022-07-23T09:10:36;10.68;;;7.80;;
20611;SDS011;10465;42.686;23.364;2022-07-23T09:15:57;11.43;;;8.10;;
20611;SDS011;10465;42.686;23.364;2022-07-23T09:18:31;13.52;;;7.50;;
20611;SDS011;10465;42.686;23.364;2022-07-23T09:29:04;17.75;;;8.75;;
20611;SDS011;10465;42.686;23.364;2022-07-23T09:31:34;13.05;;;7.78;;
20611;SDS011;10465;42.686;23.364;2022-07-23T09:34:11;10.85;;;7.45;;
20611;SDS011;10465;42.686;23.364;2022-07-23T09:36:38;12.82;;;7.25;;
20611;SDS011;10465;42.686;23.364;2022-07-23T09:39:04;11.32;;;8.20;;
20611;SDS011;10465;42.686;23.364;2022-07-23T09:41:37;12.30;;;7.15;;
20611;SDS011;10465;42.686;23.364;2022-07-23T09:44:09;11.93;;;7.38;;
20611;SDS011;10465;42.686;23.364;2022-07-23T09:46:36;10.50;;;7.70;;
20611;SDS011;10465;42.686;23.364;2022-07-23T09:49:10;10.30;;;7.35;;
20611;SDS011;10465;42.686;23.364;2022-07-23T09:51:57;9.93;;;6.72;;
20611;SDS011;10465;42.686;23.364;2022-07-23T09:54:27;10.60;;;6.70;;
20611;SDS011;10465;42.686;23.364;2022-07-23T09:57:00;11.13;;;6.35;;
20611;SDS011;10465;42.686;23.364;2022-07-23T09:59:33;7.25;;;6.43;;
20611;SDS011;10465;42.686;23.364;2022-07-23T10:02:00;9.43;;;6.63;;
20611;SDS011;10465;42.686;23.364;2022-07-23T10:04:27;9.18;;;6.43;;
20611;SDS011;10465;42.686;23.364;2022-07-23T10:06:55;8.73;;;6.63;;
20611;SDS011;10465;42.686;23.364;2022-07-23T10:09:24;12.55;;;8.63;;
20611;SDS011;10465;42.686;23.364;2022-07-23T10:11:52;10.60;;;6.97;;
20611;SDS011;10465;42.686;23.364;2022-07-23T10:14:22;10.18;;;7.55;;
20611;SDS011;10465;42.686;23.364;2022-07-23T10:16:48;6.38;;;5.75;;
20611;SDS011;10465;42.686;23.364;2022-07-23T10:19:14;11.02;;;6.07;;
20611;SDS011;10465;42.686;23.364;2022-07-23T10:21:40;7.97;;;5.95;;
20611;SDS011;10465;42.686;23.364;2022-07-23T10:26:55;11.07;;;6.35;;
20611;SDS011;10465;42.686;23.364;2022-07-23T10:32:26;8.43;;;6.38;;
20611;SDS011;10465;42.686;23.364;2022-07-23T10:37:55;10.65;;;6.63;;
20611;SDS011;10465;42.686;23.364;2022-07-23T10:40:26;9.98;;;5.97;;
20611;SDS011;10465;42.686;23.364;2022-07-23T10:42:54;8.73;;;6.30;;
20611;SDS011;10465;42.686;23.364;2022-07-23T10:47:49;11.63;;;6.40;;
20611;SDS011;10465;42.686;23.364;2022-07-23T10:53:07;9.43;;;6.57;;
20611;SDS011;10465;42.686;23.364;2022-07-23T10:55:41;8.60;;;6.50;;
20611;SDS011;10465;42.686;23.364;2022-07-23T10:58:09;9.85;;;6.70;;
20611;SDS011;10465;42.686;23.364;2022-07-23T11:00:35;11.07;;;6.28;;
20611;SDS011;10465;42.686;23.364;2022-07-23T11:03:02;10.85;;;6.25;;
20611;SDS011;10465;42.686;23.364;2022-07-23T11:05:48;7.40;;;5.90;;
20611;SDS011;10465;42.686;23.364;2022-07-23T11:08:14;11.95;;;6.68;;
20611;SDS011;10465;42.686;23.364;2022-07-23T11:32:02;9.48;;;5.80;;
20611;SDS011;10465;42.686;23.364;2022-07-23T11:34:30;12.65;;;6.25;;
20611;SDS011;10465;42.686;23.364;2022-07-23T11:36:57;10.60;;;6.28;;
20611;SDS011;10465;42.686;23.364;2022-07-23T11:39:25;12.65;;;5.93;;
20611;SDS011;10465;42.686;23.364;2022-07-23T11:41:52;11.90;;;5.65;;
20611;SDS011;10465;42.686;23.364;2022-07-23T11:44:34;12.55;;;6.30;;
20611;SDS011;10465;42.686;23.364;2022-07-23T11:47:07;10.13;;;5.50;;
20611;SDS011;10465;42.686;23.364;2022-07-23T11:49:37;13.27;;;6.07;;
20611;SDS011;10465;42.686;23.364;2022-07-23T11:52:10;9.63;;;5.75;;
20611;SDS011;10465;42.686;23.364;2022-07-23T11:54:37;13.95;;;5.97;;
20611;SDS011;10465;42.686;23.364;2022-07-23T11:57:13;13.10;;;5.32;;
20611;SDS011;10465;42.686;23.364;2022-07-23T11:59:39;11.73;;;5.20;;
20611;SDS011;10465;42.686;23.364;2022-07-23T12:02:05;15.30;;;5.45;;
20611;SDS011;10465;42.686;23.364;2022-07-23T12:09:52;13.75;;;4.63;;
20611;SDS011;10465;42.686;23.364;2022-07-23T12:12:19;12.85;;;5.07;;
20611;SDS011;10465;42.686;23.364;2022-07-23T12:15:03;12.13;;;5.25;;
20611;SDS011;10465;42.686;23.364;2022-07-23T12:17:30;9.70;;;5.45;;
20611;SDS011;10465;42.686;23.364;2022-07-23T12:19:57;12.07;;;5.60;;
20611;SDS011;10465;42.686;23.364;2022-07-23T12:22:24;15.50;;;5.47;;
20611;SDS011;10465;42.686;23.364;2022-07-23T12:24:58;15.73;;;5.85;;
20611;SDS011;10465;42.686;23.364;2022-07-23T12:27:26;11.10;;;5.20;;
20611;SDS011;10465;42.686;23.364;2022-07-23T12:29:52;10.95;;;6.68;;
20611;SDS011;10465;42.686;23.364;2022-07-23T12:32:28;13.25;;;5.40;;
20611;SDS011;10465;42.686;23.364;2022-07-23T12:35:04;11.75;;;5.47;;
20611;SDS011;10465;42.686;23.364;2022-07-23T12:37:37;12.75;;;5.50;;
20611;SDS011;10465;42.686;23.364;2022-07-23T12:42:57;9.57;;;6.38;;
20611;SDS011;10465;42.686;23.364;2022-07-23T12:45:28;11.50;;;5.45;;
20611;SDS011;10465;42.686;23.364;2022-07-23T12:48:14;10.85;;;5.43;;
20611;SDS011;10465;42.686;23.364;2022-07-23T12:50:49;9.35;;;5.60;;
20611;SDS011;10465;42.686;23.364;2022-07-23T12:53:18;14.75;;;5.38;;
20611;SDS011;10465;42.686;23.364;2022-07-23T12:55:46;9.85;;;5.43;;
20611;SDS011;10465;42.686;23.364;2022-07-23T12:58:17;11.95;;;5.60;;
20611;SDS011;10465;42.686;23.364;2022-07-23T13:03:26;13.13;;;5.50;;
20611;SDS011;10465;42.686;23.364;2022-07-23T13:05:54;8.75;;;5.40;;
20611;SDS011;10465;42.686;23.364;2022-07-23T13:08:20;14.73;;;5.40;;
20611;SDS011;10465;42.686;23.364;2022-07-23T13:10:46;9.98;;;5.35;;
20611;SDS011;10465;42.686;23.364;2022-07-23T13:13:13;10.80;;;5.50;;
20611;SDS011;10465;42.686;23.364;2022-07-23T13:15:40;13.20;;;5.35;;
20611;SDS011;10465;42.686;23.364;2022-07-23T13:18:06;13.15;;;4.95;;
20611;SDS011;10465;42.686;23.364;2022-07-23T13:20:32;9.95;;;5.25;;
20611;SDS011;10465;42.686;23.364;2022-07-23T13:22:59;14.00;;;5.75;;
20611;SDS011;10465;42.686;23.364;2022-07-23T13:25:26;10.68;;;5.53;;
20611;SDS011;10465;42.686;23.364;2022-07-23T13:27:52;9.90;;;5.13;;
20611;SDS011;10465;42.686;23.364;2022-07-23T13:30:17;11.77;;;5.30;;
20611;SDS011;10465;42.686;23.364;2022-07-23T13:32:43;7.70;;;5.25;;
20611;SDS011;10465;42.686;23.364;2022-07-23T13:35:09;17.63;;;7.75;;
20611;SDS011;10465;42.686;23.364;2022-07-23T13:37:34;9.77;;;6.40;;
20611;SDS011;10465;42.686;23.364;2022-07-23T13:40:00;10.20;;;4.90;;
20611;SDS011;10465;42.686;23.364;2022-07-23T13:42:26;13.52;;;5.25;;
20611;SDS011;10465;42.686;23.364;2022-07-23T13:44:52;11.57;;;5.20;;
20611;SDS011;10465;42.686;23.364;2022-07-23T13:47:18;12.05;;;5.03;;
20611;SDS011;10465;42.686;23.364;2022-07-23T13:49:43;12.75;;;5.22;;
20611;SDS011;10465;42.686;23.364;2022-07-23T13:52:08;10.63;;;5.35;;
20611;SDS011;10465;42.686;23.364;2022-07-23T13:54:34;13.82;;;5.80;;
20611;SDS011;10465;42.686;23.364;2022-07-23T13:57:00;11.80;;;5.75;;
20611;SDS011;10465;42.686;23.364;2022-07-23T13:59:25;10.43;;;5.28;;
20611;SDS011;10465;42.686;23.364;2022-07-23T14:01:51;12.23;;;5.18;;
20611;SDS011;10465;42.686;23.364;2022-07-23T14:04:16;10.90;;;4.88;;
20611;SDS011;10465;42.686;23.364;2022-07-23T14:06:42;12.73;;;6.13;;
20611;SDS011;10465;42.686;23.364;2022-07-23T14:09:08;13.48;;;5.13;;
20611;SDS011;10465;42.686;23.364;2022-07-23T14:11:33;12.43;;;5.47;;
20611;SDS011;10465;42.686;23.364;2022-07-23T14:13:59;10.82;;;4.90;;
20611;SDS011;10465;42.686;23.364;2022-07-23T14:16:25;14.85;;;5.32;;
20611;SDS011;10465;42.686;23.364;2022-07-23T14:18:51;11.00;;;5.00;;
20611;SDS011;10465;42.686;23.364;2022-07-23T14:21:16;11.88;;;5.20;;
20611;SDS011;10465;42.686;23.364;2022-07-23T14:23:42;11.35;;;5.43;;
20611;SDS011;10465;42.686;23.364;2022-07-23T14:26:07;12.85;;;5.55;;
20611;SDS011;10465;42.686;23.364;2022-07-23T14:28:33;9.20;;;5.22;;
20611;SDS011;10465;42.686;23.364;2022-07-23T14:30:59;9.60;;;5.10;;
20611;SDS011;10465;42.686;23.364;2022-07-23T14:33:24;10.40;;;5.10;;
20611;SDS011;10465;42.686;23.364;2022-07-23T14:35:50;11.40;;;5.45;;
20611;SDS011;10465;42.686;23.364;2022-07-23T14:38:15;13.98;;;5.22;;
20611;SDS011;10465;42.686;23.364;2022-07-23T14:40:41;9.50;;;4.88;;
20611;SDS011;10465;42.686;23.364;2022-07-23T14:43:06;8.48;;;4.55;;
20611;SDS011;10465;42.686;23.364;2022-07-23T14:45:32;9.27;;;5.18;;
20611;SDS011;10465;42.686;23.364;2022-07-23T14:47:58;10.93;;;5.40;;
20611;SDS011;10465;42.686;23.364;2022-07-23T14:50:23;12.13;;;5.70;;
20611;SDS011;10465;42.686;23.364;2022-07-23T14:52:49;10.32;;;5.13;;
20611;SDS011;10465;42.686;23.364;2022-07-23T14:55:15;12.77;;;5.35;;
20611;SDS011;10465;42.686;23.364;2022-07-23T14:57:42;11.20;;;4.90;;
20611;SDS011;10465;42.686;23.364;2022-07-23T15:00:08;9.35;;;5.38;;
20611;SDS011;10465;42.686;23.364;2022-07-23T15:02:34;9.55;;;5.05;;
20611;SDS011;10465;42.686;23.364;2022-07-23T15:04:59;8.88;;;5.00;;
20611;SDS011;10465;42.686;23.364;2022-07-23T15:07:26;11.13;;;5.45;;
20611;SDS011;10465;42.686;23.364;2022-07-23T15:09:52;9.35;;;5.00;;
20611;SDS011;10465;42.686;23.364;2022-07-23T15:12:18;11.55;;;5.32;;
20611;SDS011;10465;42.686;23.364;2022-07-23T15:14:43;14.38;;;5.63;;
20611;SDS011;10465;42.686;23.364;2022-07-23T15:17:09;10.23;;;5.53;;
20611;SDS011;10465;42.686;23.364;2022-07-23T15:19:35;13.07;;;6.38;;
20611;SDS011;10465;42.686;23.364;2022-07-23T15:22:01;13.30;;;5.70;;